createdAt,value
2022-12-14T00:01:54.133Z,-6.09
2022-12-14T00:04:21.943Z,-6.06
2022-12-14T00:06:49.625Z,-5.98
2022-12-14T00:09:17.302Z,-5.98
2022-12-14T00:11:44.959Z,-6.07
2022-12-14T00:14:12.693Z,-6.03
2022-12-14T00:16:40.319Z,-6.06
2022-12-14T00:19:14.095Z,-6.10
2022-12-14T00:21:41.776Z,-6.13
2022-12-14T00:24:10.532Z,-6.17
2022-12-14T00:26:38.287Z,-6.17
2022-12-14T00:29:06.083Z,-6.18
2022-12-14T00:31:33.851Z,-6.24
2022-12-14T00:34:01.729Z,-6.37
2022-12-14T00:36:31.600Z,-6.43
2022-12-14T00:38:59.774Z,-6.40
2022-12-14T00:41:27.453Z,-6.42
2022-12-14T00:43:55.160Z,-6.54
2022-12-14T00:46:23.037Z,-6.55
2022-12-14T00:48:50.776Z,-6.56
2022-12-14T00:51:18.700Z,-6.59
2022-12-14T00:53:46.537Z,-6.69
2022-12-14T00:56:14.296Z,-6.71
2022-12-14T00:58:41.949Z,-6.69
2022-12-14T01:01:15.592Z,-6.71
2022-12-14T01:03:43.937Z,-6.77
2022-12-14T01:06:20.602Z,-6.80
2022-12-14T01:08:49.353Z,-6.86
2022-12-14T01:11:17.058Z,-6.92
2022-12-14T01:13:44.781Z,-6.97
2022-12-14T01:16:17.881Z,-7.04
2022-12-14T01:18:45.880Z,-7.06
2022-12-14T01:21:19.135Z,-7.14
2022-12-14T01:23:48.428Z,-7.25
2022-12-14T01:26:18.238Z,-7.36
2022-12-14T01:28:47.367Z,-7.46
2022-12-14T01:31:18.185Z,-7.63
2022-12-14T01:33:46.427Z,-7.78
2022-12-14T01:36:16.980Z,-7.93
2022-12-14T01:38:45.619Z,-8.00
2022-12-14T01:41:25.166Z,-8.05
2022-12-14T01:43:55.016Z,-8.11
2022-12-14T01:46:25.628Z,-8.09
2022-12-14T01:48:59.609Z,-8.06
2022-12-14T01:51:29.693Z,-8.04
2022-12-14T01:54:00.231Z,-8.03
2022-12-14T01:56:30.798Z,-8.00
2022-12-14T01:59:03.866Z,-7.97
2022-12-14T02:01:31.605Z,-7.97
2022-12-14T02:04:00.966Z,-7.92
2022-12-14T02:06:35.016Z,-7.92
2022-12-14T02:09:06.329Z,-7.89
2022-12-14T02:11:48.848Z,-7.95
2022-12-14T02:14:16.428Z,-8.22
2022-12-14T02:16:44.182Z,-8.38
2022-12-14T02:19:11.829Z,-8.54
2022-12-14T02:21:57.624Z,-8.71
2022-12-14T02:24:48.175Z,-8.85
2022-12-14T02:27:34.192Z,-8.99
2022-12-14T02:30:06.625Z,-9.12
2022-12-14T02:33:11.877Z,-9.20
2022-12-14T02:35:44.079Z,-9.25
2022-12-14T02:38:36.692Z,-9.25
2022-12-14T02:41:38.329Z,-9.33
2022-12-14T02:44:26.560Z,-9.34
2022-12-14T02:47:02.938Z,-9.44
2022-12-14T02:49:48.977Z,-9.47
2022-12-14T02:52:45.115Z,-9.43
2022-12-14T02:55:22.889Z,-9.50
2022-12-14T02:58:00.394Z,-9.58
2022-12-14T03:00:32.258Z,-9.55
2022-12-14T03:03:01.372Z,-9.59
2022-12-14T03:05:29.005Z,-9.58
2022-12-14T03:08:12.089Z,-9.54
2022-12-14T03:10:50.532Z,-9.61
2022-12-14T03:13:36.014Z,-9.67
2022-12-14T03:16:40.924Z,-9.62
2022-12-14T03:19:26.585Z,-9.67
2022-12-14T03:21:59.463Z,-9.80
2022-12-14T03:24:41.891Z,-9.99
2022-12-14T03:27:20.346Z,-10.14
2022-12-14T03:29:55.204Z,-10.08
2022-12-14T03:32:26.518Z,-10.10
2022-12-14T03:35:10.906Z,-10.24
2022-12-14T03:37:38.496Z,-10.26
2022-12-14T03:40:10.656Z,-10.24
2022-12-14T03:42:44.227Z,-10.21
2022-12-14T03:45:26.034Z,-10.21
2022-12-14T03:48:23.006Z,-10.34
2022-12-14T03:51:14.264Z,-10.49
2022-12-14T03:54:05.376Z,-10.54
2022-12-14T03:56:38.982Z,-10.43
2022-12-14T03:59:13.864Z,-10.37
2022-12-14T04:01:51.432Z,-10.38
2022-12-14T04:04:27.040Z,-10.37
2022-12-14T04:07:02.017Z,-10.32
2022-12-14T04:09:51.710Z,-10.27
2022-12-14T04:12:51.478Z,-10.36
2022-12-14T04:15:43.684Z,-10.32
2022-12-14T04:18:40.678Z,-10.25
2022-12-14T04:21:29.170Z,-10.20
2022-12-14T04:24:20.974Z,-10.16
2022-12-14T04:27:16.821Z,-10.21
2022-12-14T04:29:57.975Z,-10.31
2022-12-14T04:32:32.994Z,-10.39
2022-12-14T04:35:13.864Z,-10.68
2022-12-14T04:37:45.448Z,-10.93
2022-12-14T04:40:32.919Z,-11.10
2022-12-14T04:43:09.529Z,-11.20
2022-12-14T04:45:45.182Z,-11.26
2022-12-14T04:48:31.296Z,-11.32
2022-12-14T04:51:09.536Z,-11.35
2022-12-14T04:53:38.985Z,-11.32
2022-12-14T04:56:20.232Z,-11.24
2022-12-14T04:58:48.507Z,-11.12
2022-12-14T05:01:41.056Z,-10.99
2022-12-14T05:04:30.771Z,-10.91
2022-12-14T05:07:20.611Z,-10.86
2022-12-14T05:10:04.050Z,-10.89
2022-12-14T05:12:41.379Z,-10.95
2022-12-14T05:15:32.680Z,-11.06
2022-12-14T05:18:05.309Z,-11.16
2022-12-14T05:20:32.951Z,-11.21
2022-12-14T05:23:00.626Z,-11.23
2022-12-14T05:25:28.563Z,-11.21
2022-12-14T05:27:56.270Z,-11.17
2022-12-14T05:30:23.983Z,-11.19
2022-12-14T05:32:53.132Z,-11.24
2022-12-14T05:35:21.039Z,-11.24
2022-12-14T05:37:49.316Z,-11.22
2022-12-14T05:40:17.774Z,-11.16
2022-12-14T05:42:48.685Z,-11.10
2022-12-14T05:45:20.210Z,-11.04
2022-12-14T05:47:47.845Z,-10.94
2022-12-14T05:50:15.560Z,-10.85
2022-12-14T05:52:43.132Z,-10.76
2022-12-14T05:55:10.826Z,-10.65
2022-12-14T05:57:38.495Z,-10.57
2022-12-14T06:00:06.543Z,-10.39
2022-12-14T06:02:34.173Z,-10.18
2022-12-14T06:05:01.914Z,-9.98
2022-12-14T06:07:29.584Z,-9.81
2022-12-14T06:09:57.176Z,-9.64
2022-12-14T06:12:24.757Z,-9.46
2022-12-14T06:14:52.418Z,-9.30
2022-12-14T06:17:20.093Z,-9.17
2022-12-14T06:19:49.904Z,-9.03
2022-12-14T06:22:18.993Z,-8.88
2022-12-14T06:24:46.620Z,-8.80
2022-12-14T06:27:14.214Z,-8.68
2022-12-14T06:29:41.872Z,-8.58
2022-12-14T06:32:09.534Z,-8.46
2022-12-14T06:34:40.601Z,-8.41
2022-12-14T06:37:09.999Z,-8.37
2022-12-14T06:39:37.611Z,-8.36
2022-12-14T06:42:06.260Z,-8.28
2022-12-14T06:44:33.968Z,-8.17
2022-12-14T06:47:01.831Z,-8.09
2022-12-14T06:49:29.471Z,-8.17
2022-12-14T06:51:57.091Z,-8.27
2022-12-14T06:54:24.713Z,-8.44
2022-12-14T06:56:52.453Z,-8.58
2022-12-14T06:59:20.113Z,-8.64
2022-12-14T07:01:49.947Z,-8.62
2022-12-14T07:04:21.073Z,-8.73
2022-12-14T07:06:48.971Z,-8.88
2022-12-14T07:09:16.634Z,-8.96
2022-12-14T07:11:44.259Z,-8.90
2022-12-14T07:14:16.811Z,-8.90
2022-12-14T07:16:48.370Z,-8.92
2022-12-14T07:19:17.538Z,-8.96
2022-12-14T07:21:45.241Z,-8.96
2022-12-14T07:24:12.905Z,-8.92
2022-12-14T07:26:40.563Z,-8.83
2022-12-14T07:45:25.891Z,-8.30
2022-12-14T07:47:53.522Z,-8.31
2022-12-14T07:50:21.160Z,-8.27
2022-12-14T07:52:48.968Z,-8.21
2022-12-14T07:55:16.954Z,-8.09
2022-12-14T07:57:45.024Z,-8.04
2022-12-14T08:00:13.287Z,-8.02
2022-12-14T08:02:41.096Z,-7.92
2022-12-14T08:05:12.520Z,-7.65
2022-12-14T08:07:40.454Z,-7.29
2022-12-14T08:10:08.256Z,-6.87
2022-12-14T08:12:35.849Z,-6.44
2022-12-14T08:15:03.917Z,-6.07
2022-12-14T08:17:32.587Z,-5.67
2022-12-14T08:20:00.189Z,-5.29
2022-12-14T08:22:27.877Z,-4.96
2022-12-14T08:24:55.674Z,-4.72
2022-12-14T08:27:23.337Z,-4.48
2022-12-14T08:29:51.023Z,-4.27
2022-12-14T08:32:19.123Z,-4.06
2022-12-14T08:34:46.810Z,-3.81
2022-12-14T08:37:14.515Z,-3.50
2022-12-14T08:39:42.160Z,-3.27
2022-12-14T08:42:09.739Z,-3.26
2022-12-14T08:44:37.347Z,-3.19
2022-12-14T08:47:05.032Z,-3.11
2022-12-14T08:49:33.039Z,-2.96
2022-12-14T08:52:00.832Z,-2.90
2022-12-14T08:54:28.620Z,-2.88
2022-12-14T08:56:56.264Z,-2.91
2022-12-14T08:59:52.228Z,-2.89
2022-12-14T09:02:13.508Z,-2.95
2022-12-14T09:04:41.250Z,-2.91
2022-12-14T09:07:08.902Z,-2.85
2022-12-14T09:09:37.417Z,-2.81
2022-12-14T09:12:07.482Z,-2.87
2022-12-14T09:14:35.453Z,-3.10
2022-12-14T09:17:03.453Z,-3.22
2022-12-14T09:19:31.081Z,-3.33
2022-12-14T09:21:58.784Z,-3.53
2022-12-14T09:24:26.518Z,-3.73
2022-12-14T09:26:54.806Z,-4.00
2022-12-14T09:29:22.503Z,-4.42
2022-12-14T09:31:50.129Z,-4.60
2022-12-14T09:34:17.796Z,-4.71
2022-12-14T09:36:45.896Z,-4.94
2022-12-14T09:39:15.042Z,-5.10
2022-12-14T09:42:00.777Z,-5.30
2022-12-14T09:45:06.089Z,-5.40
2022-12-14T09:47:45.093Z,-5.46
2022-12-14T09:50:17.545Z,-5.58
2022-12-14T09:52:48.771Z,-5.69
2022-12-14T09:55:29.283Z,-5.69
2022-12-14T09:58:05.229Z,-5.74
2022-12-14T10:00:37.687Z,-5.66
2022-12-14T10:03:17.816Z,-5.56
2022-12-14T10:06:09.582Z,-5.47
2022-12-14T10:08:52.698Z,-5.34
2022-12-14T10:11:35.517Z,-5.31
2022-12-14T10:14:18.323Z,-5.35
2022-12-14T10:17:27.331Z,-5.41
2022-12-14T10:19:57.396Z,-5.40
2022-12-14T10:22:34.488Z,-5.40
2022-12-14T10:25:14.156Z,-5.40
2022-12-14T10:30:41.958Z,-5.39
2022-12-14T10:33:29.462Z,-5.39
2022-12-14T10:36:06.877Z,-5.33
2022-12-14T10:38:43.867Z,-5.30
2022-12-14T10:41:32.752Z,-5.25
2022-12-14T10:44:06.515Z,-5.26
2022-12-14T10:46:51.799Z,-5.21
2022-12-14T10:49:27.991Z,-5.18
2022-12-14T10:52:00.171Z,-5.13
2022-12-14T10:54:43.306Z,-5.13
2022-12-14T10:57:22.624Z,-5.12
2022-12-14T11:00:05.732Z,-5.05
2022-12-14T11:02:41.129Z,-5.05
2022-12-14T11:05:37.692Z,-5.03
2022-12-14T11:08:07.311Z,-5.01
2022-12-14T11:10:39.255Z,-4.95
2022-12-14T11:13:16.761Z,-4.88
2022-12-14T11:15:47.292Z,-4.84
2022-12-14T11:18:15.526Z,-4.80
2022-12-14T11:20:53.984Z,-4.79
2022-12-14T11:23:37.517Z,-4.80
2022-12-14T11:26:31.272Z,-4.77
2022-12-14T11:29:01.228Z,-4.75
2022-12-14T11:31:28.997Z,-4.71
2022-12-14T11:33:59.305Z,-4.72
2022-12-14T11:36:33.341Z,-4.69
2022-12-14T11:39:18.190Z,-4.72
2022-12-14T11:41:52.297Z,-4.67
2022-12-14T11:44:28.616Z,-4.63
2022-12-14T11:46:59.225Z,-4.60
2022-12-14T11:49:30.118Z,-4.59
2022-12-14T11:52:02.266Z,-4.56
2022-12-14T11:54:41.148Z,-4.56
2022-12-14T11:57:19.893Z,-4.55
2022-12-14T11:59:57.591Z,-4.58
2022-12-14T12:02:30.975Z,-4.57
2022-12-14T12:05:07.767Z,-4.55
2022-12-14T12:07:39.095Z,-4.54
2022-12-14T12:10:09.804Z,-4.53
2022-12-14T12:12:38.735Z,-4.51
2022-12-14T12:15:15.927Z,-4.51
2022-12-14T12:17:46.760Z,-4.54
2022-12-14T12:20:23.430Z,-4.58
2022-12-14T12:22:56.486Z,-4.57
2022-12-14T12:25:32.115Z,-4.61
2022-12-14T12:28:14.213Z,-4.61
2022-12-14T12:30:47.835Z,-4.62
2022-12-14T12:33:27.849Z,-4.61
2022-12-14T12:36:00.686Z,-4.61
2022-12-14T12:39:01.002Z,-4.61
2022-12-14T12:42:04.972Z,-4.61
2022-12-14T12:44:50.551Z,-4.61
2022-12-14T12:47:46.223Z,-4.62
2022-12-14T12:50:37.074Z,-4.61
2022-12-14T12:53:19.234Z,-4.59
2022-12-14T12:55:58.243Z,-4.60
2022-12-14T12:58:30.389Z,-4.63
2022-12-14T13:01:02.232Z,-4.65
2022-12-14T13:03:37.425Z,-4.63
2022-12-14T13:06:20.663Z,-4.63
2022-12-14T13:08:56.566Z,-4.62
2022-12-14T13:11:38.036Z,-4.63
2022-12-14T13:14:20.233Z,-4.64
2022-12-14T13:16:50.770Z,-4.66
2022-12-14T13:19:51.187Z,-4.68
2022-12-14T13:22:27.856Z,-4.73
2022-12-14T13:25:00.027Z,-4.75
2022-12-14T13:27:59.145Z,-4.75
2022-12-14T13:30:35.752Z,-4.76
2022-12-14T13:33:25.411Z,-4.77
2022-12-14T13:36:11.616Z,-4.85
2022-12-14T13:38:39.583Z,-4.90
2022-12-14T13:41:13.430Z,-4.89
2022-12-14T13:43:47.234Z,-4.91
2022-12-14T13:46:27.396Z,-4.92
2022-12-14T13:49:06.382Z,-4.93
2022-12-14T13:51:46.316Z,-5.00
2022-12-14T13:54:33.383Z,-5.03
2022-12-14T13:57:11.360Z,-5.05
2022-12-14T13:59:43.573Z,-5.08
2022-12-14T14:02:29.955Z,-5.07
2022-12-14T14:05:19.265Z,-5.17
2022-12-14T14:08:03.449Z,-5.18
2022-12-14T14:10:36.738Z,-5.22
2022-12-14T14:13:27.090Z,-5.30
2022-12-14T14:16:28.055Z,-5.33
2022-12-14T14:19:08.659Z,-5.40
2022-12-14T14:22:22.355Z,-5.42
2022-12-14T14:24:52.218Z,-5.56
2022-12-14T14:27:23.641Z,-5.61
2022-12-14T14:29:52.355Z,-5.65
2022-12-14T14:32:40.135Z,-5.68
2022-12-14T14:35:23.904Z,-5.67
2022-12-14T14:38:09.984Z,-5.75
2022-12-14T14:41:13.954Z,-5.80
2022-12-14T14:43:36.563Z,-5.83
2022-12-14T14:46:10.111Z,-5.88
2022-12-14T14:48:54.636Z,-5.93
2022-12-14T14:51:28.418Z,-5.99
2022-12-14T14:54:44.833Z,-6.04
2022-12-14T14:57:34.330Z,-6.04
2022-12-14T15:00:04.560Z,-6.16
2022-12-14T15:02:42.930Z,-6.20
2022-12-14T15:08:42.799Z,-6.31
2022-12-14T15:11:20.228Z,-6.34
2022-12-14T15:13:54.018Z,-6.41
2022-12-14T15:16:31.247Z,-6.46
2022-12-14T15:19:27.878Z,-6.46
2022-12-14T15:22:07.902Z,-6.50
2022-12-14T15:24:41.482Z,-6.55
2022-12-14T15:27:30.597Z,-6.61
2022-12-14T15:30:05.669Z,-6.66
2022-12-14T15:32:41.752Z,-6.65
2022-12-14T15:35:17.447Z,-6.70
2022-12-14T15:38:00.397Z,-6.69
2022-12-14T15:40:30.718Z,-6.69
2022-12-14T15:42:58.388Z,-6.70
2022-12-14T15:45:41.450Z,-6.70
2022-12-14T15:48:21.738Z,-6.73
2022-12-14T15:50:54.287Z,-6.73
2022-12-14T15:53:54.990Z,-6.69
2022-12-14T15:56:32.195Z,-6.66
2022-12-14T15:59:35.186Z,-6.63
2022-12-14T16:02:15.457Z,-6.63
2022-12-14T16:04:44.677Z,-6.62
2022-12-14T16:07:23.861Z,-6.60
2022-12-14T16:09:56.894Z,-6.61
2022-12-14T16:12:42.638Z,-6.52
2022-12-14T16:15:28.347Z,-6.48
2022-12-14T16:18:02.615Z,-6.45
2022-12-14T16:20:37.268Z,-6.42
2022-12-14T16:23:17.623Z,-6.40
2022-12-14T16:26:03.225Z,-6.38
2022-12-14T16:28:34.641Z,-6.34
2022-12-14T16:31:05.599Z,-6.30
2022-12-14T16:33:36.240Z,-6.26
2022-12-14T16:36:26.372Z,-6.21
2022-12-14T16:39:22.093Z,-6.22
2022-12-14T16:41:53.264Z,-6.21
2022-12-14T16:44:24.424Z,-6.18
2022-12-14T16:47:01.539Z,-6.17
2022-12-14T16:49:41.545Z,-6.16
2022-12-14T16:52:23.934Z,-6.16
2022-12-14T16:55:13.599Z,-6.14
2022-12-14T16:58:01.494Z,-6.10
2022-12-14T17:00:38.488Z,-6.08
2022-12-14T17:03:19.599Z,-6.04
2022-12-14T17:05:53.203Z,-6.06
2022-12-14T17:08:23.986Z,-6.05
2022-12-14T17:10:53.821Z,-6.00
2022-12-14T17:13:21.625Z,-5.99
2022-12-14T17:15:59.600Z,-6.00
2022-12-14T17:18:32.023Z,-6.01
2022-12-14T17:21:01.426Z,-6.00
2022-12-14T17:23:29.645Z,-5.98
2022-12-14T17:25:58.692Z,-5.96
2022-12-14T17:28:31.446Z,-6.00
2022-12-14T17:31:01.612Z,-6.00
2022-12-14T17:33:33.971Z,-5.94
2022-12-14T17:36:02.053Z,-5.92
2022-12-14T17:38:32.343Z,-5.91
2022-12-14T17:41:01.584Z,-5.86
2022-12-14T17:43:30.455Z,-5.81
2022-12-14T17:46:06.387Z,-5.77
2022-12-14T17:48:37.347Z,-5.75
2022-12-14T17:51:05.302Z,-5.73
2022-12-14T17:53:33.481Z,-5.73
2022-12-14T17:56:01.798Z,-5.71
2022-12-14T17:58:29.505Z,-5.71
2022-12-14T18:01:00.037Z,-5.67
2022-12-14T18:03:30.275Z,-5.71
2022-12-14T18:05:59.371Z,-5.71
2022-12-14T18:08:27.123Z,-5.68
2022-12-14T18:11:01.694Z,-5.68
2022-12-14T18:13:31.918Z,-5.70
2022-12-14T18:16:00.692Z,-5.63
2022-12-14T18:18:29.497Z,-5.62
2022-12-14T18:21:00.576Z,-5.61
2022-12-14T18:23:29.881Z,-5.58
2022-12-14T18:25:59.692Z,-5.57
2022-12-14T18:28:27.388Z,-5.56
2022-12-14T18:30:58.846Z,-5.55
2022-12-14T18:33:27.799Z,-5.53
2022-12-14T18:35:57.194Z,-5.46
2022-12-14T18:38:25.364Z,-5.47
2022-12-14T18:40:55.895Z,-5.47
2022-12-14T18:43:26.170Z,-5.47
2022-12-14T18:45:55.407Z,-5.46
2022-12-14T18:48:25.137Z,-5.46
2022-12-14T18:50:54.649Z,-5.46
2022-12-14T18:53:24.052Z,-5.46
2022-12-14T18:55:52.698Z,-5.43
2022-12-14T19:01:51.138Z,-5.37
2022-12-14T19:04:18.946Z,-5.39
2022-12-14T19:06:46.589Z,-5.44
2022-12-14T19:09:14.889Z,-5.44
2022-12-14T19:11:43.555Z,-5.48
2022-12-14T19:14:11.634Z,-5.49
2022-12-14T19:16:39.742Z,-5.48
2022-12-14T19:19:07.496Z,-5.51
2022-12-14T19:21:35.172Z,-5.47
2022-12-14T19:24:02.844Z,-5.42
2022-12-14T19:26:30.789Z,-5.42
2022-12-14T19:28:58.659Z,-5.43
2022-12-14T19:31:26.397Z,-5.43
2022-12-14T19:33:54.321Z,-5.41
2022-12-14T19:36:22.055Z,-5.40
2022-12-14T19:38:49.930Z,-5.38
2022-12-14T19:41:20.444Z,-5.35
2022-12-14T19:43:48.575Z,-5.29
2022-12-14T19:46:17.859Z,-5.29
2022-12-14T19:48:45.949Z,-5.24
2022-12-14T19:51:14.246Z,-5.20
2022-12-14T19:53:43.974Z,-5.18
2022-12-14T19:56:15.553Z,-5.16
2022-12-14T19:58:43.548Z,-5.18
2022-12-14T20:01:13.453Z,-5.15
2022-12-14T20:03:41.639Z,-5.14
2022-12-14T20:06:09.759Z,-5.16
2022-12-14T20:08:37.522Z,-5.13
2022-12-14T20:11:07.670Z,-5.13
2022-12-14T20:13:35.694Z,-5.09
2022-12-14T20:16:03.769Z,-5.03
2022-12-14T20:18:32.053Z,-5.00
2022-12-14T20:21:08.895Z,-5.00
2022-12-14T20:23:37.681Z,-4.98
2022-12-14T20:26:09.649Z,-4.99
2022-12-14T20:28:37.279Z,-4.95
2022-12-14T20:31:07.313Z,-4.95
2022-12-14T20:33:35.643Z,-4.93
2022-12-14T20:36:04.070Z,-4.90
2022-12-14T20:38:31.734Z,-4.86
2022-12-14T20:41:11.748Z,-4.84
2022-12-14T20:43:44.458Z,-4.82
2022-12-14T20:46:39.064Z,-4.80
2022-12-14T20:49:11.090Z,-4.80
2022-12-14T20:51:39.940Z,-4.84
2022-12-14T20:54:12.265Z,-4.79
2022-12-14T20:56:41.989Z,-4.80
2022-12-14T20:59:10.796Z,-4.75
2022-12-14T21:01:40.653Z,-4.76
2022-12-14T21:04:09.648Z,-4.73
2022-12-14T21:06:39.781Z,-4.70
2022-12-14T21:09:13.806Z,-4.64
2022-12-14T21:12:06.671Z,-4.61
2022-12-14T21:14:42.694Z,-4.63
2022-12-14T21:17:13.544Z,-4.60
2022-12-14T21:19:41.261Z,-4.57
2022-12-14T21:22:13.036Z,-4.56
2022-12-14T21:27:30.432Z,-4.52
2022-12-14T21:29:58.405Z,-4.49
2022-12-14T21:32:26.273Z,-4.52
2022-12-14T21:34:53.883Z,-4.53
2022-12-14T21:37:21.999Z,-4.52
2022-12-14T21:39:55.131Z,-4.53
2022-12-14T21:42:24.640Z,-4.51
2022-12-14T21:44:54.161Z,-4.48
2022-12-14T21:47:25.657Z,-4.46
2022-12-14T21:49:54.243Z,-4.40
2022-12-14T21:52:24.241Z,-4.38
2022-12-14T21:54:51.938Z,-4.36
2022-12-14T21:57:41.562Z,-4.34
2022-12-14T22:00:10.812Z,-4.34
2022-12-14T22:02:42.348Z,-4.34
2022-12-14T22:05:10.907Z,-4.32
2022-12-14T22:07:38.663Z,-4.31
2022-12-14T22:10:06.606Z,-4.30
2022-12-14T22:12:34.271Z,-4.28
2022-12-14T22:15:01.912Z,-4.28
2022-12-14T22:17:29.650Z,-4.24
2022-12-14T22:19:57.484Z,-4.25
2022-12-14T22:22:25.070Z,-4.23
2022-12-14T22:24:52.659Z,-4.23
2022-12-14T22:27:20.324Z,-4.19
2022-12-14T22:29:48.119Z,-4.20
2022-12-14T22:32:15.971Z,-4.20
2022-12-14T22:34:43.686Z,-4.20
2022-12-14T22:37:16.465Z,-4.21
2022-12-14T22:39:44.542Z,-4.21
2022-12-14T22:42:16.469Z,-4.23
2022-12-14T22:44:44.415Z,-4.20
2022-12-14T22:47:12.166Z,-4.19
2022-12-14T22:49:40.111Z,-4.18
2022-12-14T22:52:07.706Z,-4.14
2022-12-14T22:54:39.183Z,-4.10
2022-12-14T22:57:12.038Z,-4.10
2022-12-14T22:59:47.832Z,-4.13
2022-12-14T23:02:15.533Z,-4.08
2022-12-14T23:04:43.528Z,-4.02
2022-12-14T23:07:11.140Z,-3.99
2022-12-14T23:09:57.204Z,-4.01
2022-12-14T23:12:43.590Z,-4.06
2022-12-14T23:15:29.831Z,-4.09
2022-12-14T23:18:20.238Z,-4.15
2022-12-14T23:21:06.435Z,-4.17
2022-12-14T23:23:57.051Z,-4.21
2022-12-14T23:26:43.548Z,-4.26
2022-12-14T23:29:29.957Z,-4.26
2022-12-14T23:32:16.575Z,-4.31
2022-12-14T23:35:02.860Z,-4.31
2022-12-14T23:37:48.957Z,-4.29
2022-12-14T23:40:35.445Z,-4.27
2022-12-14T23:43:29.175Z,-4.24
2022-12-14T23:46:15.561Z,-4.19
2022-12-14T23:49:02.704Z,-4.22
2022-12-14T23:51:50.411Z,-4.24
2022-12-14T23:54:36.748Z,-4.29
2022-12-14T23:57:26.027Z,-4.36
